Time;durP1;ratioP1;P1;durP2;ratioP2;P2;SDS_P1;SDS_P2;PMS_P1;PMS_P2;Temp;Humidity;BMP_temperature;BMP_pressure;BME280_temperature;BME280_humidity;BME280_pressure;Samples;Min_cycle;Max_cycle;Signal;HPM_P1;HPM_P2
2024/02/23 00:04:26;;;;;;;0.95;0.10;;;;;;;10.15;65.85;97933.66;10328296;28;20042;-65
2024/02/23 00:09:27;;;;;;;0.60;0.08;;;;;;;10.11;66.27;97984.28;10328736;28;20347;-66
2024/02/23 00:14:30;;;;;;;0.47;0.10;;;;;;;10.05;65.91;97967.28;10330207;28;20042;-67
2024/02/23 00:19:32;;;;;;;0.80;0.00;;;;;;;9.98;66.80;98006.81;10324475;28;20085;-65
2024/02/23 00:24:34;;;;;;;1.27;0.20;;;;;;;10.01;66.55;97984.06;10323440;28;20085;-66
2024/02/23 00:29:36;;;;;;;1.08;0.30;;;;;;;10.04;66.18;98007.75;10323186;28;20137;-64
2024/02/23 00:34:38;;;;;;;1.67;0.03;;;;;;;10.07;66.23;98024.22;10318535;28;20476;-65
2024/02/23 00:39:40;;;;;;;1.77;0.10;;;;;;;10.06;66.47;98037.88;10323884;28;20047;-64
2024/02/23 00:44:41;;;;;;;0.45;0.08;;;;;;;10.08;66.63;98035.78;10325796;28;20050;-65
2024/02/23 00:49:43;;;;;;;6.38;0.63;;;;;;;9.92;65.89;98038.06;10316952;28;20043;-66
2024/02/23 00:54:44;;;;;;;1.05;0.10;;;;;;;9.83;65.62;98049.34;10314739;28;20057;-62
2024/02/23 00:59:46;;;;;;;0.68;0.00;;;;;;;9.71;64.90;98070.75;10322224;28;20564;-64
2024/02/23 01:04:47;;;;;;;0.80;0.13;;;;;;;9.63;64.51;98079.94;10318904;28;20102;-67
2024/02/23 01:09:49;;;;;;;0.10;0.00;;;;;;;9.69;64.95;98097.81;10317505;28;21084;-68
2024/02/23 01:14:50;;;;;;;2.60;0.10;;;;;;;9.70;64.65;98104.81;10323909;28;20050;-62
2024/02/23 01:25:06;;;;;;;3.33;0.10;;;;;;;8.80;66.04;98136.72;10393423;28;20060;-85
2024/02/23 01:30:08;;;;;;;0.00;0.00;;;;;;;8.67;66.73;98151.06;10393662;28;20045;-85
2024/02/23 01:35:10;;;;;;;0.85;0.00;;;;;;;8.65;66.39;98155.78;10394231;28;20041;-86
2024/02/23 01:40:12;;;;;;;0.28;0.00;;;;;;;8.59;66.19;98159.34;10392558;28;20042;-87
2024/02/23 01:45:14;;;;;;;0.93;0.00;;;;;;;8.51;65.28;98171.13;10370393;28;20096;-87
2024/02/23 01:50:16;;;;;;;0.52;0.00;;;;;;;8.49;65.24;98171.38;10395951;28;20045;-87
2024/02/23 01:55:21;;;;;;;0.10;0.00;;;;;;;8.40;65.56;98179.84;10379830;28;20050;-87
2024/02/23 02:00:23;;;;;;;0.00;0.00;;;;;;;8.36;66.24;98190.16;10371959;28;20045;-87
2024/02/23 02:05:25;;;;;;;0.22;0.00;;;;;;;8.29;65.55;98200.91;10395931;28;20065;-88
2024/02/23 02:10:27;;;;;;;1.58;0.13;;;;;;;8.23;65.40;98206.28;10395606;28;20121;-87
2024/02/23 02:15:28;;;;;;;0.00;0.00;;;;;;;8.19;65.43;98216.59;10397599;28;20412;-88
2024/02/23 02:20:33;;;;;;;2.95;0.10;;;;;;;8.16;65.56;98234.94;10392911;28;20053;-88
2024/02/23 02:25:35;;;;;;;1.38;0.00;;;;;;;8.10;65.58;98250.81;10375883;28;20044;-88
2024/02/23 02:30:37;;;;;;;1.52;0.10;;;;;;;8.06;65.03;98248.78;10377246;28;20066;-87
2024/02/23 02:35:39;;;;;;;2.40;0.00;;;;;;;8.06;65.14;98260.28;10399090;28;20053;-88
2024/02/23 02:40:41;;;;;;;1.27;0.00;;;;;;;8.07;65.65;98255.75;10376069;28;20057;-87
2024/02/23 02:45:43;;;;;;;0.03;0.00;;;;;;;7.99;65.84;98266.69;10378268;28;20115;-85
2024/02/23 02:50:49;;;;;;;0.20;0.20;;;;;;;7.91;65.80;98254.38;10393364;28;20107;-85
2024/02/23 02:55:54;;;;;;;0.82;0.00;;;;;;;7.84;65.81;98277.63;10388467;28;20056;-85
2024/02/23 03:00:56;;;;;;;1.95;0.00;;;;;;;7.76;66.00;98281.38;10377403;28;20136;-85
2024/02/23 03:05:58;;;;;;;2.55;0.20;;;;;;;7.80;65.86;98289.78;10388771;28;20053;-85
2024/02/23 03:11:00;;;;;;;1.20;0.10;;;;;;;7.90;65.70;98282.97;10392803;28;20074;-85
2024/02/23 03:16:02;;;;;;;1.00;0.10;;;;;;;7.96;65.30;98292.03;10386299;28;20046;-85
2024/02/23 03:21:04;;;;;;;2.25;0.00;;;;;;;7.96;65.40;98300.03;10386744;28;20217;-85
2024/02/23 03:26:08;;;;;;;0.20;0.20;;;;;;;7.81;65.24;98283.41;10387910;28;20045;-85
2024/02/23 03:31:10;;;;;;;1.65;0.32;;;;;;;7.67;65.87;98280.75;10390533;28;20051;-86
2024/02/23 03:36:12;;;;;;;1.75;0.10;;;;;;;7.66;65.62;98279.13;10389153;28;20073;-85
2024/02/23 03:41:13;;;;;;;3.67;0.13;;;;;;;7.73;65.15;98281.78;10366898;28;20072;-86
2024/02/23 03:46:16;;;;;;;3.00;0.13;;;;;;;7.79;65.47;98288.16;10388677;28;20049;-85
2024/02/23 03:51:18;;;;;;;2.40;0.10;;;;;;;7.84;65.06;98282.97;10387772;28;20045;-85
2024/02/23 03:56:19;;;;;;;0.98;0.30;;;;;;;7.85;65.19;98300.69;10389374;28;20044;-86
2024/02/23 04:01:21;;;;;;;3.50;0.10;;;;;;;7.85;64.92;98296.16;10360904;28;20044;-86
2024/02/23 04:06:23;;;;;;;0.75;0.13;;;;;;;7.75;65.58;98287.75;10393546;28;20515;-86
2024/02/23 04:11:24;;;;;;;3.15;0.10;;;;;;;7.63;66.03;98297.44;10369946;28;20042;-86
2024/02/23 04:16:27;;;;;;;1.80;0.10;;;;;;;7.58;65.96;98297.22;10370131;28;20050;-85
2024/02/23 04:21:29;;;;;;;1.65;0.10;;;;;;;7.54;66.25;98303.00;10387606;28;20456;-86
2024/02/23 04:26:30;;;;;;;3.85;0.10;;;;;;;7.49;66.33;98301.97;10389363;28;20053;-85
2024/02/23 04:31:32;;;;;;;1.65;0.03;;;;;;;7.52;66.82;98305.06;10389321;28;20056;-86
2024/02/23 04:36:34;;;;;;;2.92;0.10;;;;;;;7.56;66.64;98294.75;10387031;28;20132;-85
2024/02/23 04:41:35;;;;;;;2.60;0.08;;;;;;;7.57;66.45;98299.09;10366534;28;20054;-86
2024/02/23 04:46:37;;;;;;;4.07;0.10;;;;;;;7.58;66.90;98299.91;10392042;28;20136;-85
2024/02/23 04:51:39;;;;;;;0.63;0.10;;;;;;;7.52;66.92;98298.88;10369372;28;20057;-85
2024/02/23 04:56:40;;;;;;;0.60;0.43;;;;;;;7.48;67.29;98295.78;10382451;28;20061;-84
2024/02/23 05:01:42;;;;;;;3.25;0.35;;;;;;;7.40;67.15;98290.66;10376203;28;20107;-85
2024/02/23 05:06:44;;;;;;;3.83;0.30;;;;;;;7.31;66.79;98302.59;10379490;28;20103;-86
2024/02/23 05:11:47;;;;;;;5.22;0.30;;;;;;;7.19;67.64;98307.72;10389544;28;20580;-87
2024/02/23 05:16:49;;;;;;;1.50;0.22;;;;;;;7.13;67.56;98313.91;10387869;28;20041;-87
2024/02/23 05:21:53;;;;;;;1.35;0.20;;;;;;;7.16;67.83;98316.16;10388768;28;20050;-86
2024/02/23 05:26:54;;;;;;;0.45;0.20;;;;;;;7.13;67.23;98324.59;10388391;28;20041;-85
2024/02/23 05:31:56;;;;;;;0.80;0.20;;;;;;;7.13;67.85;98332.59;10368766;28;20596;-86
2024/02/23 05:36:58;;;;;;;3.67;0.52;;;;;;;7.08;67.63;98340.38;10379011;28;20069;-85
2024/02/23 05:42:00;;;;;;;1.02;0.20;;;;;;;7.15;67.81;98347.38;10391285;28;20076;-85
2024/02/23 05:47:01;;;;;;;1.95;0.20;;;;;;;7.19;67.33;98345.13;10379424;28;20041;-85
2024/02/23 05:52:03;;;;;;;4.07;0.40;;;;;;;7.13;67.40;98338.75;10394001;28;20096;-86
2024/02/23 05:57:05;;;;;;;5.95;0.45;;;;;;;7.10;67.17;98343.69;10372908;28;20046;-85
2024/02/23 06:02:06;;;;;;;2.85;0.65;;;;;;;7.06;67.82;98351.28;10401121;28;20103;-86
2024/02/23 06:07:08;;;;;;;3.80;0.40;;;;;;;7.17;67.65;98355.22;10398139;28;20050;-86
2024/02/23 06:12:10;;;;;;;0.93;0.30;;;;;;;7.29;67.65;98364.25;10403084;28;20408;-85
2024/02/23 06:17:11;;;;;;;2.60;0.20;;;;;;;7.42;67.97;98370.63;10371363;28;20044;-86
2024/02/23 06:22:16;;;;;;;1.63;0.30;;;;;;;7.49;67.58;98374.97;10393556;28;20049;-83
2024/02/23 06:27:18;;;;;;;2.42;0.20;;;;;;;7.58;67.83;98372.91;10396077;28;20045;-87
2024/02/23 06:32:20;;;;;;;1.75;0.30;;;;;;;7.64;68.23;98379.28;10404441;22;20360;-65
2024/02/23 06:37:22;;;;;;;7.47;0.25;;;;;;;7.62;67.54;98400.91;10443433;28;20045;-64
2024/02/23 06:42:25;;;;;;;4.82;0.30;;;;;;;7.60;67.78;98410.94;10440623;28;20067;-63
2024/02/23 06:47:26;;;;;;;1.83;0.32;;;;;;;7.76;67.50;98423.13;10443898;28;20048;-63
2024/02/23 06:52:28;;;;;;;5.28;0.20;;;;;;;7.78;68.13;98421.06;10445474;28;20069;-63
2024/02/23 06:57:30;;;;;;;3.53;0.75;;;;;;;7.91;67.79;98415.69;10448731;28;20057;-63
2024/02/23 07:02:36;;;;;;;2.25;0.20;;;;;;;7.97;67.66;98413.22;10439960;28;20053;-62
2024/02/23 07:07:40;;;;;;;1.27;0.30;;;;;;;7.95;67.43;98430.28;10447270;28;20122;-62
2024/02/23 07:12:43;;;;;;;2.70;0.30;;;;;;;7.95;67.29;98427.63;10443076;28;20045;-62
2024/02/23 07:17:45;;;;;;;0.90;0.17;;;;;;;7.94;67.94;98431.34;10438407;28;20053;-64
2024/02/23 07:22:47;;;;;;;0.85;0.15;;;;;;;8.05;67.43;98429.88;10438652;28;20037;-64
2024/02/23 07:27:49;;;;;;;2.10;0.68;;;;;;;8.05;67.67;98429.88;10435916;28;20046;-63
2024/02/23 07:32:50;;;;;;;3.30;0.20;;;;;;;8.06;67.48;98426.19;10401587;28;20044;-64
2024/02/23 07:37:55;;;;;;;0.35;0.10;;;;;;;8.16;67.24;98407.03;10414815;28;20034;-65
2024/02/23 07:42:57;;;;;;;1.85;0.17;;;;;;;8.24;66.70;98412.16;10442817;22;20480;-85
2024/02/23 07:47:58;;;;;;;1.67;0.28;;;;;;;8.32;66.35;98421.81;10406347;28;20077;-85
2024/02/23 07:53:00;;;;;;;2.05;0.20;;;;;;;8.36;66.26;98428.41;10419003;28;20069;-83
2024/02/23 07:58:02;;;;;;;0.90;0.20;;;;;;;8.44;65.77;98432.75;10399196;28;20041;-84
2024/02/23 08:03:04;;;;;;;3.88;0.60;;;;;;;8.52;65.21;98446.72;10391571;28;20107;-85
2024/02/23 08:08:06;;;;;;;1.70;0.20;;;;;;;8.59;65.16;98445.88;10393940;28;20042;-87
2024/02/23 08:13:10;;;;;;;1.95;0.10;;;;;;;8.67;64.57;98459.06;10434161;28;20053;-85
2024/02/23 08:18:12;;;;;;;0.80;0.57;;;;;;;8.72;64.53;98459.22;10394412;28;20558;-87
2024/02/23 08:23:14;;;;;;;1.25;0.20;;;;;;;8.78;64.06;98457.56;10340444;28;20120;-84
2024/02/23 08:28:17;;;;;;;2.85;0.30;;;;;;;8.86;63.50;98460.81;10433914;23;20041;-90
2024/02/23 08:33:19;;;;;;;5.05;0.30;;;;;;;8.86;63.79;98454.66;10397406;28;20057;-90
2024/02/23 08:38:21;;;;;;;1.88;0.30;;;;;;;8.90;63.25;98462.03;10375891;28;20422;-89
2024/02/23 08:43:23;;;;;;;1.02;0.22;;;;;;;8.98;62.97;98466.34;10392271;28;20073;-89
2024/02/23 08:48:25;;;;;;;5.30;0.20;;;;;;;9.04;62.52;98467.34;10396651;28;20051;-88
2024/02/23 08:53:26;;;;;;;4.82;0.40;;;;;;;9.01;62.35;98470.47;10379702;28;20077;-88
2024/02/23 08:58:28;;;;;;;2.90;0.30;;;;;;;8.93;62.13;98469.66;10379658;28;20049;-88
2024/02/23 09:03:31;;;;;;;2.38;0.30;;;;;;;8.99;62.02;98475.22;10391300;23;20025;-70
2024/02/23 09:08:33;;;;;;;2.95;0.43;;;;;;;9.00;61.69;98476.88;10382926;28;20483;-71
2024/02/23 09:13:34;;;;;;;4.70;0.40;;;;;;;9.11;61.74;98481.56;10384674;28;20041;-65
2024/02/23 09:18:36;;;;;;;3.72;0.20;;;;;;;9.13;61.80;98479.50;10380694;28;20046;-67
2024/02/23 09:23:37;;;;;;;4.10;0.30;;;;;;;9.08;61.65;98480.16;10384322;28;20057;-69
2024/02/23 09:28:41;;;;;;;3.15;0.52;;;;;;;9.13;61.57;98472.28;10377582;28;20053;-68
2024/02/23 09:33:43;;;;;;;5.10;0.75;;;;;;;9.22;61.29;98474.69;10366903;28;20131;-68
2024/02/23 09:38:45;;;;;;;3.33;0.28;;;;;;;9.19;61.06;98462.56;10375122;28;20045;-68
2024/02/23 09:43:53;;;;;;;2.05;0.22;;;;;;;9.47;60.38;98461.38;10376067;28;20056;-68
2024/02/23 09:48:56;;;;;;;3.85;0.20;;;;;;;9.78;60.05;98451.69;10374413;28;20041;-69
2024/02/23 09:53:57;;;;;;;3.95;0.50;;;;;;;10.10;59.32;98450.59;10374306;28;20842;-68
2024/02/23 09:59:01;;;;;;;6.95;0.30;;;;;;;10.26;59.24;98456.44;10374384;28;20133;-66
2024/02/23 10:04:06;;;;;;;5.57;0.57;;;;;;;10.42;58.35;98455.91;10372451;28;20046;-67
2024/02/23 10:09:07;;;;;;;1.90;0.10;;;;;;;10.55;58.14;98462.19;10379251;28;20046;-68
2024/02/23 10:14:09;;;;;;;7.05;0.30;;;;;;;10.70;57.99;98458.09;10368930;28;20080;-68
2024/02/23 10:19:10;;;;;;;2.67;0.40;;;;;;;10.69;57.25;98451.06;10372311;28;20052;-68
2024/02/23 10:24:12;;;;;;;2.90;0.40;;;;;;;10.91;56.84;98456.00;10373693;28;20038;-68
2024/02/23 10:29:14;;;;;;;4.30;0.40;;;;;;;11.23;56.10;98440.47;10375738;28;20056;-65
2024/02/23 10:34:19;;;;;;;4.90;0.35;;;;;;;11.02;55.66;98449.03;10375906;28;20040;-66
2024/02/23 10:39:24;;;;;;;2.95;0.10;;;;;;;10.88;55.46;98449.22;10373106;28;20108;-68
2024/02/23 10:44:28;;;;;;;2.38;0.90;;;;;;;10.80;55.79;98454.91;10351776;28;20516;-68
2024/02/23 10:49:30;;;;;;;3.47;0.17;;;;;;;10.82;55.23;98457.34;10349014;28;20641;-67
2024/02/23 10:54:33;;;;;;;4.60;0.30;;;;;;;10.98;55.06;98456.75;10373446;28;20062;-65
2024/02/23 10:59:35;;;;;;;2.95;0.20;;;;;;;11.26;54.31;98455.38;10366239;28;20058;-68
2024/02/23 11:04:38;;;;;;;5.20;0.25;;;;;;;11.58;54.05;98444.38;10370013;28;20058;-67
2024/02/23 11:09:39;;;;;;;2.67;0.40;;;;;;;12.08;53.52;98435.94;10370559;28;20045;-66
2024/02/23 11:14:44;;;;;;;4.28;0.20;;;;;;;12.06;53.04;98430.78;10371336;28;20052;-65
2024/02/23 11:19:48;;;;;;;2.55;0.20;;;;;;;12.06;53.18;98429.97;10375416;28;20100;-67
2024/02/23 11:24:50;;;;;;;2.65;0.20;;;;;;;12.23;52.57;98419.31;10373061;28;20140;-66
2024/02/23 11:30:04;;;;;;;4.85;0.30;;;;;;;12.21;52.74;98416.03;10367144;28;20060;-66
2024/02/23 11:35:13;;;;;;;3.00;0.20;;;;;;;12.00;53.17;98434.41;10353282;28;20052;-66
2024/02/23 11:40:17;;;;;;;2.13;0.22;;;;;;;11.92;52.90;98434.75;10372967;28;20469;-63
2024/02/23 11:45:19;;;;;;;1.75;0.52;;;;;;;11.74;53.41;98434.81;10369432;28;20091;-63
2024/02/23 11:50:20;;;;;;;5.30;0.30;;;;;;;11.30;53.96;98441.22;10362286;28;20037;-65
2024/02/23 11:55:23;;;;;;;0.60;0.17;;;;;;;11.17;54.25;98441.38;10369380;28;20046;-64
2024/02/23 12:00:25;;;;;;;3.97;0.35;;;;;;;10.55;56.35;98475.63;10359471;28;20037;-64
2024/02/23 12:05:26;;;;;;;2.78;0.93;;;;;;;8.86;61.48;98474.22;10379070;28;20064;-64
2024/02/23 12:10:29;;;;;;;1.65;0.10;;;;;;;8.75;62.54;98466.88;10372664;28;20129;-64
2024/02/23 12:15:30;;;;;;;1.70;0.20;;;;;;;8.46;64.00;98462.81;10378604;28;20520;-63
2024/02/23 12:20:35;;;;;;;5.53;0.38;;;;;;;8.41;64.47;98462.56;10354420;28;20054;-64
2024/02/23 12:25:37;;;;;;;1.55;0.20;;;;;;;8.25;65.27;98461.16;10373128;28;20346;-63
2024/02/23 12:30:43;;;;;;;5.28;0.10;;;;;;;8.36;65.46;98452.50;10380175;28;20042;-63
2024/02/23 12:35:44;;;;;;;0.77;0.15;;;;;;;8.54;65.62;98452.69;10397082;28;20110;-63
2024/02/23 12:40:46;;;;;;;1.48;0.70;;;;;;;8.62;65.56;98451.63;10396317;28;20049;-64
2024/02/23 12:45:51;;;;;;;2.47;0.30;;;;;;;8.79;65.82;98435.09;10396413;28;20052;-64
2024/02/23 12:50:53;;;;;;;3.55;0.57;;;;;;;8.84;66.42;98438.78;10396982;28;20121;-64
2024/02/23 12:55:55;;;;;;;3.10;0.20;;;;;;;8.89;66.91;98433.63;10386254;28;20177;-64
2024/02/23 13:00:57;;;;;;;4.63;0.20;;;;;;;9.25;66.46;98432.22;10376380;28;20056;-64
2024/02/23 13:05:58;;;;;;;3.33;0.20;;;;;;;9.45;66.45;98428.59;10363885;28;20069;-64
2024/02/23 13:11:00;;;;;;;0.60;0.20;;;;;;;9.56;66.07;98429.75;10369881;28;20092;-65
2024/02/23 13:16:02;;;;;;;2.78;0.30;;;;;;;9.71;66.01;98423.03;10365898;28;20092;-65
2024/02/23 13:21:03;;;;;;;2.53;0.20;;;;;;;10.22;64.88;98425.69;10367679;28;20046;-65
2024/02/23 13:26:06;;;;;;;6.18;0.40;;;;;;;11.06;63.23;98416.09;10371892;28;20052;-65
2024/02/23 13:31:07;;;;;;;4.38;0.30;;;;;;;11.25;62.74;98416.06;10356268;28;20100;-65
2024/02/23 13:36:09;;;;;;;3.80;0.40;;;;;;;11.75;61.50;98422.97;10375270;28;20089;-65
2024/02/23 13:41:11;;;;;;;4.03;0.82;;;;;;;11.40;61.32;98421.03;10371651;28;20038;-66
2024/02/23 13:46:13;;;;;;;1.38;0.30;;;;;;;11.36;60.37;98419.84;10368816;28;20088;-65
2024/02/23 13:51:14;;;;;;;0.30;0.10;;;;;;;12.71;56.66;98418.19;10371832;28;20141;-64
2024/02/23 13:56:16;;;;;;;1.73;0.20;;;;;;;14.14;54.45;98408.38;10366767;28;20133;-65
2024/02/23 14:01:17;;;;;;;0.50;0.10;;;;;;;15.97;51.46;98395.34;10363502;28;20042;-66
2024/02/23 14:06:19;;;;;;;3.05;0.30;;;;;;;14.11;54.87;98411.56;10363373;28;20046;-63
2024/02/23 14:11:20;;;;;;;2.50;0.20;;;;;;;13.68;54.20;98417.41;10367432;28;20034;-63
2024/02/23 14:16:23;;;;;;;1.88;0.20;;;;;;;12.66;53.81;98407.31;10360930;28;20042;-65
2024/02/23 14:21:25;;;;;;;2.00;0.10;;;;;;;12.41;53.34;98413.78;10361753;28;20591;-65
2024/02/23 14:26:26;;;;;;;0.73;0.20;;;;;;;12.44;53.25;98412.50;10371747;28;20051;-65
2024/02/23 14:31:28;;;;;;;4.10;0.25;;;;;;;12.27;53.41;98401.63;10373366;28;20046;-63
2024/02/23 14:36:33;;;;;;;2.35;0.10;;;;;;;11.97;53.62;98397.19;10370642;28;20050;-65
2024/02/23 14:41:35;;;;;;;1.45;0.15;;;;;;;11.89;54.30;98387.56;10368079;28;20136;-64
2024/02/23 14:46:37;;;;;;;3.22;0.35;;;;;;;11.83;54.20;98390.34;10370546;28;20069;-63
2024/02/23 14:51:42;;;;;;;3.60;0.20;;;;;;;11.96;54.35;98381.25;10367112;28;20141;-63
2024/02/23 14:56:44;;;;;;;2.47;0.22;;;;;;;12.00;53.95;98385.94;10370502;28;20053;-63
2024/02/23 15:01:45;;;;;;;0.93;0.30;;;;;;;12.84;52.53;98374.81;10364650;28;20042;-65
2024/02/23 15:06:47;;;;;;;0.50;0.15;;;;;;;13.81;50.52;98362.22;10342178;28;20164;-68
2024/02/23 15:11:48;;;;;;;3.25;0.40;;;;;;;13.80;50.94;98362.47;10367358;28;20042;-67
2024/02/23 15:16:50;;;;;;;4.25;0.55;;;;;;;13.57;50.95;98363.47;10370222;28;20103;-68
2024/02/23 15:21:53;;;;;;;1.58;0.20;;;;;;;14.45;50.33;98356.41;10367469;28;20053;-67
2024/02/23 15:26:54;;;;;;;3.42;0.68;;;;;;;14.14;51.76;98354.31;10366869;28;20135;-68
2024/02/23 15:31:56;;;;;;;1.55;0.10;;;;;;;13.38;52.78;98363.69;10365798;28;20764;-65
2024/02/23 15:36:57;;;;;;;3.15;0.38;;;;;;;13.83;52.01;98353.88;10368513;28;20069;-68
2024/02/23 15:41:59;;;;;;;1.25;0.20;;;;;;;14.96;49.89;98350.00;10375916;28;20046;-67
2024/02/23 15:47:00;;;;;;;1.75;0.20;;;;;;;14.59;51.42;98361.44;10367888;28;20070;-67
2024/02/23 15:52:02;;;;;;;0.60;0.10;;;;;;;14.78;51.53;98362.78;10366121;28;20042;-67
2024/02/23 15:57:04;;;;;;;2.15;0.10;;;;;;;14.72;51.54;98366.50;10366946;28;20563;-65
2024/02/23 16:02:07;;;;;;;4.28;0.30;;;;;;;14.48;51.71;98376.69;10372280;28;20089;-65
2024/02/23 16:07:09;;;;;;;0.95;0.20;;;;;;;13.96;52.29;98380.56;10366759;28;20069;-65
2024/02/23 16:12:12;;;;;;;0.95;0.20;;;;;;;13.36;52.92;98386.56;10370438;28;20512;-66
2024/02/23 16:17:13;;;;;;;1.35;0.22;;;;;;;12.82;53.47;98393.09;10372755;28;20124;-64
2024/02/23 16:22:15;;;;;;;2.67;0.20;;;;;;;12.36;53.99;98384.06;10367421;28;20583;-65
2024/02/23 16:27:16;;;;;;;2.47;0.30;;;;;;;12.03;54.89;98385.47;10364634;28;20400;-65
2024/02/23 16:32:18;;;;;;;1.27;0.88;;;;;;;11.68;54.87;98391.59;10367236;28;20045;-65
2024/02/23 16:37:19;;;;;;;4.55;0.20;;;;;;;11.41;55.36;98399.25;10348592;28;20136;-65
2024/02/23 16:42:21;;;;;;;2.20;0.40;;;;;;;11.18;55.93;98405.41;10365519;28;20042;-64
2024/02/23 16:47:22;;;;;;;1.92;0.30;;;;;;;11.06;56.21;98408.03;10368409;28;20045;-64
2024/02/23 16:52:24;;;;;;;1.02;0.40;;;;;;;10.94;56.44;98400.94;10368856;28;20046;-64
2024/02/23 16:57:26;;;;;;;1.27;0.40;;;;;;;10.87;56.21;98406.41;10371114;28;20500;-64
2024/02/23 17:02:27;;;;;;;4.38;0.30;;;;;;;10.76;57.01;98396.41;10369426;28;20075;-63
2024/02/23 17:07:29;;;;;;;3.08;0.30;;;;;;;10.58;57.37;98390.00;10366353;28;20664;-65
2024/02/23 17:12:31;;;;;;;4.65;0.30;;;;;;;10.37;57.68;98396.66;10361848;28;20496;-63
2024/02/23 17:17:32;;;;;;;2.42;0.30;;;;;;;10.20;58.00;98403.63;10373641;28;20053;-63
2024/02/23 17:22:34;;;;;;;3.60;0.40;;;;;;;10.22;57.78;98396.16;10367379;28;20049;-63
2024/02/23 17:27:36;;;;;;;3.72;0.32;;;;;;;10.22;58.05;98406.91;10365811;28;20057;-63
2024/02/23 17:32:38;;;;;;;1.65;0.40;;;;;;;10.18;58.39;98395.78;10365894;28;20102;-62
2024/02/23 17:37:39;;;;;;;1.88;0.30;;;;;;;10.17;58.11;98398.69;10366273;28;20118;-62
2024/02/23 17:42:40;;;;;;;6.00;0.52;;;;;;;10.07;58.47;98412.63;10368306;28;20077;-62
2024/02/23 17:47:42;;;;;;;2.78;0.50;;;;;;;10.01;58.42;98410.81;10366665;28;20152;-62
2024/02/23 17:52:44;;;;;;;4.43;0.40;;;;;;;9.96;59.07;98408.81;10365229;28;20050;-63
2024/02/23 17:57:45;;;;;;;1.15;0.40;;;;;;;10.02;58.94;98417.84;10377009;28;20045;-62
2024/02/23 18:02:47;;;;;;;2.30;0.40;;;;;;;10.05;58.96;98417.38;10376620;28;20177;-62
2024/02/23 18:07:48;;;;;;;2.72;0.63;;;;;;;10.01;59.29;98433.13;10373806;28;20050;-62
2024/02/23 18:12:51;;;;;;;7.20;0.60;;;;;;;9.93;59.29;98438.75;10369334;28;20102;-63
2024/02/23 18:17:52;;;;;;;3.67;0.60;;;;;;;9.91;59.66;98436.31;10376679;28;20061;-61
2024/02/23 18:22:55;;;;;;;4.13;0.73;;;;;;;9.80;59.85;98430.81;10370048;28;20053;-60
2024/02/23 18:27:56;;;;;;;4.70;0.55;;;;;;;9.65;60.36;98434.63;10366389;28;20046;-60
2024/02/23 18:32:58;;;;;;;3.65;0.70;;;;;;;9.51;60.54;98436.56;10370521;28;20446;-60
2024/02/23 18:37:59;;;;;;;5.95;0.50;;;;;;;9.38;60.63;98443.88;10371881;28;20532;-60
2024/02/23 18:43:01;;;;;;;1.65;0.50;;;;;;;9.20;60.99;98440.09;10368280;28;20046;-60
2024/02/23 18:48:03;;;;;;;5.57;0.50;;;;;;;9.25;60.93;98448.28;10354903;28;20050;-60
2024/02/23 18:53:05;;;;;;;1.92;1.40;;;;;;;9.37;60.63;98448.44;10373016;28;20042;-60
2024/02/23 18:58:07;;;;;;;3.60;0.63;;;;;;;9.45;60.43;98458.91;10373900;28;20045;-60
2024/02/23 19:03:09;;;;;;;2.63;0.40;;;;;;;9.33;60.80;98453.41;10374481;28;20048;-60
2024/02/23 19:08:10;;;;;;;3.55;0.50;;;;;;;9.29;60.87;98446.00;10368170;28;20123;-61
2024/02/23 19:13:12;;;;;;;4.65;0.50;;;;;;;9.34;60.85;98456.94;10364610;28;20100;-61
2024/02/23 19:18:13;;;;;;;3.65;0.60;;;;;;;9.39;60.88;98461.63;10367951;28;20042;-62
2024/02/23 19:23:16;;;;;;;5.35;0.80;;;;;;;9.47;60.83;98453.31;10360890;28;20088;-61
2024/02/23 19:28:17;;;;;;;6.28;1.30;;;;;;;9.52;60.55;98453.50;10346620;28;20050;-60
2024/02/23 19:33:19;;;;;;;2.33;0.63;;;;;;;9.52;60.83;98456.19;10372117;28;20058;-60
2024/02/23 19:38:20;;;;;;;2.97;0.40;;;;;;;9.49;60.73;98445.88;10370530;28;20074;-59
2024/02/23 19:43:22;;;;;;;4.63;0.57;;;;;;;9.40;60.85;98444.50;10369065;28;20050;-60
2024/02/23 19:48:23;;;;;;;5.43;0.57;;;;;;;9.32;61.07;98437.53;10366042;28;20599;-60
2024/02/23 19:53:25;;;;;;;4.38;1.15;;;;;;;9.23;61.15;98441.50;10369038;28;20049;-60
2024/02/23 19:58:27;;;;;;;2.75;0.82;;;;;;;9.17;61.25;98447.72;10372420;28;20037;-59
2024/02/23 20:03:29;;;;;;;8.07;0.60;;;;;;;9.04;61.38;98451.28;10363919;28;20371;-59
2024/02/23 20:08:30;;;;;;;5.10;0.70;;;;;;;8.89;61.51;98448.88;10366802;28;20042;-60
2024/02/23 20:13:31;;;;;;;4.57;1.00;;;;;;;8.77;61.73;98450.56;10368097;28;20141;-59
2024/02/23 20:18:33;;;;;;;8.77;1.10;;;;;;;8.64;61.91;98448.75;10374652;28;20054;-60
2024/02/23 20:23:34;;;;;;;5.93;0.80;;;;;;;8.51;62.10;98453.13;10350651;28;20053;-63
2024/02/23 20:28:36;;;;;;;5.03;0.70;;;;;;;8.41;62.30;98449.19;10364949;28;20072;-59
2024/02/23 20:33:39;;;;;;;3.83;1.05;;;;;;;8.29;62.17;98452.53;10367232;28;20068;-60
2024/02/23 20:38:42;;;;;;;4.00;1.10;;;;;;;8.24;62.17;98446.94;10367162;28;20045;-59
2024/02/23 20:43:44;;;;;;;4.45;1.00;;;;;;;8.14;62.40;98452.72;10356747;28;20053;-60
2024/02/23 20:48:46;;;;;;;2.15;0.70;;;;;;;8.08;62.69;98448.22;10367542;28;20049;-59
2024/02/23 20:53:48;;;;;;;3.00;1.23;;;;;;;8.03;62.47;98439.97;10371573;28;20076;-59
2024/02/23 20:58:50;;;;;;;8.32;1.40;;;;;;;7.89;62.98;98446.34;10371042;28;20050;-60
2024/02/23 21:03:51;;;;;;;5.90;1.90;;;;;;;7.68;63.74;98442.88;10372558;28;20115;-61
2024/02/23 21:08:53;;;;;;;5.25;1.80;;;;;;;7.50;63.55;98445.28;10377462;28;20058;-61
2024/02/23 21:13:55;;;;;;;10.88;2.50;;;;;;;7.32;64.06;98460.06;10370388;28;20052;-60
2024/02/23 21:18:56;;;;;;;4.07;1.90;;;;;;;7.22;63.74;98458.81;10364911;28;20047;-60
2024/02/23 21:24:03;;;;;;;5.57;2.38;;;;;;;7.12;64.04;98456.50;10372186;28;20046;-60
2024/02/23 21:29:04;;;;;;;7.57;2.90;;;;;;;7.02;63.67;98453.41;10374219;28;20044;-61
2024/02/23 21:34:06;;;;;;;6.47;2.10;;;;;;;6.93;64.61;98461.59;10378434;28;20471;-59
2024/02/23 21:39:08;;;;;;;5.32;2.90;;;;;;;6.75;64.73;98459.47;10378897;28;20600;-59
2024/02/23 21:44:10;;;;;;;10.20;3.13;;;;;;;6.70;64.76;98463.75;10378022;28;20042;-60
2024/02/23 21:49:11;;;;;;;8.43;2.13;;;;;;;6.66;64.67;98457.97;10379856;28;20038;-59
2024/02/23 21:54:12;;;;;;;7.55;2.08;;;;;;;6.57;65.45;98453.00;10373022;28;20092;-61
2024/02/23 21:59:14;;;;;;;4.85;1.83;;;;;;;6.41;64.69;98456.78;10377168;28;20057;-60
2024/02/23 22:04:15;;;;;;;4.05;1.83;;;;;;;6.21;65.42;98462.81;10382456;28;20049;-59
2024/02/23 22:09:17;;;;;;;3.58;1.48;;;;;;;6.13;65.28;98462.97;10375156;28;20133;-60
2024/02/23 22:14:18;;;;;;;4.35;1.95;;;;;;;5.95;65.50;98469.59;10376614;28;20528;-60
2024/02/23 22:19:20;;;;;;;4.85;1.98;;;;;;;5.92;66.01;98458.47;10370520;28;20042;-59
2024/02/23 22:24:23;;;;;;;6.28;2.22;;;;;;;5.80;65.99;98466.16;10378406;28;20048;-59
2024/02/23 22:29:24;;;;;;;6.32;2.15;;;;;;;5.69;66.87;98461.38;10374730;28;20045;-60
2024/02/23 22:34:26;;;;;;;9.98;3.13;;;;;;;5.61;66.90;98456.13;10377827;28;20050;-59
2024/02/23 22:39:28;;;;;;;14.38;4.18;;;;;;;5.47;66.59;98472.03;10373597;28;20124;-61
2024/02/23 22:44:29;;;;;;;10.45;2.92;;;;;;;5.38;66.93;98477.66;10379680;28;20133;-60
2024/02/23 22:49:31;;;;;;;5.88;2.45;;;;;;;5.28;66.89;98470.78;10371681;28;20128;-60
2024/02/23 22:54:33;;;;;;;6.15;1.95;;;;;;;5.28;66.93;98462.81;10371867;28;20057;-67
2024/02/23 22:59:35;;;;;;;7.90;2.78;;;;;;;5.21;66.93;98459.22;10374309;28;20081;-66
2024/02/23 23:04:36;;;;;;;6.05;2.00;;;;;;;5.02;67.10;98481.97;10374986;28;20680;-64
2024/02/23 23:09:38;;;;;;;5.22;2.25;;;;;;;4.99;67.58;98479.66;10376338;28;20414;-67
2024/02/23 23:14:39;;;;;;;8.50;2.85;;;;;;;4.97;67.56;98485.19;10377327;28;20046;-67
2024/02/23 23:19:41;;;;;;;7.22;2.70;;;;;;;4.75;68.48;98494.94;10375906;28;20660;-66
2024/02/23 23:24:42;;;;;;;6.50;2.50;;;;;;;4.76;68.46;98509.09;10373424;28;20137;-68
2024/02/23 23:29:44;;;;;;;8.23;2.33;;;;;;;4.87;67.95;98508.59;10374182;28;20053;-64
2024/02/23 23:34:45;;;;;;;8.52;3.40;;;;;;;4.90;68.09;98513.56;10356076;28;20054;-67
2024/02/23 23:39:47;;;;;;;8.40;2.47;;;;;;;4.91;68.43;98519.72;10372804;28;20052;-67
2024/02/23 23:44:48;;;;;;;4.50;2.47;;;;;;;4.95;67.79;98497.84;10371559;28;20463;-67